Time;durP1;ratioP1;P1;durP2;ratioP2;P2;SDS_P1;SDS_P2;PMS_P1;PMS_P2;Temp;Humidity;BMP_temperature;BMP_pressure;BME280_temperature;BME280_humidity;BME280_pressure;Samples;Min_cycle;Max_cycle;Signal;HPM_P1;HPM_P2
2021/01/13 00:00:22;;;;;;;19.33;11.67;;;;;;;-0.72;74.91;99281.61;1681669;84;21192;-68
2021/01/13 00:02:51;;;;;;;18.27;10.73;;;;;;;-0.72;74.42;99282.94;1647315;85;21165;-67
2021/01/13 00:05:27;;;;;;;16.43;10.93;;;;;;;-0.82;73.77;99281.12;1649601;85;22154;-71
2021/01/13 00:07:58;;;;;;;18.80;12.17;;;;;;;-0.88;74.01;99275.27;1672133;85;21187;-73
2021/01/13 00:10:26;;;;;;;15.83;11.63;;;;;;;-0.89;73.98;99283.69;1672251;85;21583;-71
2021/01/13 00:12:54;;;;;;;16.07;11.27;;;;;;;-0.88;74.09;99281.87;1670500;85;21180;-70
2021/01/13 00:15:22;;;;;;;14.90;8.93;;;;;;;-0.83;74.12;99281.31;1654751;85;21188;-71
2021/01/13 00:17:50;;;;;;;16.87;11.70;;;;;;;-0.84;73.95;99261.19;1661556;85;21212;-71
2021/01/13 00:20:17;;;;;;;17.87;10.80;;;;;;;-0.89;73.82;99267.03;1666992;85;21570;-70
2021/01/13 00:22:46;;;;;;;17.47;11.53;;;;;;;-0.96;73.88;99259.56;1653979;85;21139;-69
2021/01/13 00:25:18;;;;;;;18.37;11.40;;;;;;;-0.97;74.04;99250.81;1671596;85;21650;-69
2021/01/13 00:27:46;;;;;;;17.50;12.40;;;;;;;-0.90;73.95;99243.77;1666547;85;21177;-70
2021/01/13 00:30:17;;;;;;;14.17;10.67;;;;;;;-0.90;73.69;99255.65;1671697;85;21081;-69
2021/01/13 00:32:44;;;;;;;17.20;12.33;;;;;;;-0.93;73.65;99250.76;1652662;85;21606;-70
2021/01/13 00:35:14;;;;;;;15.87;11.43;;;;;;;-0.93;73.67;99248.12;1644740;87;21124;-69
2021/01/13 00:37:42;;;;;;;18.20;12.63;;;;;;;-0.94;73.81;99253.07;1644739;85;21202;-69
2021/01/13 00:40:12;;;;;;;14.40;11.20;;;;;;;-0.94;73.76;99249.61;1622774;85;21262;-70
2021/01/13 00:42:47;;;;;;;16.87;10.43;;;;;;;-0.90;73.65;99245.59;1659793;85;22340;-68
2021/01/13 00:45:19;;;;;;;13.00;9.93;;;;;;;-0.93;73.46;99238.06;1664790;85;21149;-69
2021/01/13 00:47:51;;;;;;;13.27;9.17;;;;;;;-0.95;73.34;99230.31;1669894;85;21180;-68
2021/01/13 00:50:19;;;;;;;12.82;8.90;;;;;;;-1.02;72.92;99215.44;1663995;84;21669;-68
2021/01/13 00:52:49;;;;;;;15.07;9.83;;;;;;;-1.05;72.95;99219.74;1634381;87;21216;-65
2021/01/13 00:55:17;;;;;;;15.17;9.47;;;;;;;-1.04;73.00;99216.93;1622952;85;22134;-67
2021/01/13 00:57:50;;;;;;;9.67;8.23;;;;;;;-1.13;73.02;99218.05;1644996;85;21189;-63
2021/01/13 01:00:20;;;;;;;18.32;10.10;;;;;;;-1.18;72.99;99217.80;1661375;85;21152;-66
2021/01/13 01:02:50;;;;;;;14.07;10.83;;;;;;;-1.21;72.97;99204.16;1673307;85;21158;-65
2021/01/13 01:05:17;;;;;;;14.53;10.67;;;;;;;-1.24;72.85;99202.70;1675839;85;21182;-67
2021/01/13 01:07:45;;;;;;;20.07;11.23;;;;;;;-1.25;72.80;99205.55;1674941;85;21382;-66
2021/01/13 01:10:27;;;;;;;14.70;9.47;;;;;;;-1.21;72.78;99214.72;1693438;84;21204;-67
2021/01/13 01:12:55;;;;;;;16.70;10.70;;;;;;;-1.18;72.75;99213.83;1698974;84;21169;-65
2021/01/13 01:15:24;;;;;;;17.23;12.17;;;;;;;-1.19;72.66;99234.62;1692815;84;21208;-64
2021/01/13 01:17:52;;;;;;;16.77;11.10;;;;;;;-1.19;72.80;99223.24;1682018;84;21153;-67
2021/01/13 01:20:19;;;;;;;15.37;11.50;;;;;;;-1.21;72.80;99222.13;1673767;85;21406;-66
2021/01/13 01:22:56;;;;;;;16.33;11.10;;;;;;;-1.18;72.55;99223.07;1674496;84;21861;-66
2021/01/13 01:25:26;;;;;;;16.63;13.63;;;;;;;-1.20;72.13;99217.67;1696764;84;21207;-64
2021/01/13 01:27:56;;;;;;;17.47;10.27;;;;;;;-1.23;72.16;99209.62;1695219;84;21157;-62
2021/01/13 01:30:26;;;;;;;16.73;12.90;;;;;;;-1.26;71.95;99200.77;1681809;84;21181;-62
2021/01/13 01:32:53;;;;;;;21.00;12.57;;;;;;;-1.28;72.01;99201.94;1676019;85;21206;-65
2021/01/13 01:35:25;;;;;;;12.67;6.50;;;;;;;-1.29;72.08;99196.38;1682002;84;21151;-69
2021/01/13 01:37:53;;;;;;;15.93;10.77;;;;;;;-1.28;71.79;99194.84;1671269;85;21212;-68
2021/01/13 01:40:21;;;;;;;17.47;11.67;;;;;;;-1.23;71.91;99185.05;1673815;85;21264;-68
2021/01/13 01:42:53;;;;;;;15.87;10.63;;;;;;;-1.22;71.78;99179.60;1701363;84;21164;-68
2021/01/13 01:45:26;;;;;;;18.63;11.27;;;;;;;-1.23;71.82;99164.77;1695853;84;21353;-66
2021/01/13 01:48:11;;;;;;;15.80;10.93;;;;;;;-1.30;71.83;99167.86;1646611;87;21151;-69
2021/01/13 01:50:46;;;;;;;17.07;11.43;;;;;;;-1.28;72.08;99161.05;1646522;87;21269;-66
2021/01/13 01:53:40;;;;;;;20.67;14.63;;;;;;;-1.28;72.23;99146.55;1646550;87;21236;-66
2021/01/13 01:56:25;;;;;;;19.93;12.00;;;;;;;-1.27;72.08;99152.97;1647087;85;21201;-67
2021/01/13 02:01:52;;;;;;;23.73;13.27;;;;;;;-1.21;71.75;99143.49;1846234;75;26511;-67
2021/01/13 02:07:20;;;;;;;17.53;13.10;;;;;;;-1.18;70.98;99144.42;1733909;82;21205;-69
2021/01/13 02:09:49;;;;;;;20.43;14.00;;;;;;;-1.22;70.67;99142.67;1762009;81;21658;-67
2021/01/13 02:12:17;;;;;;;22.93;12.40;;;;;;;-1.24;70.77;99135.94;1765259;81;21010;-67
2021/01/13 02:14:44;;;;;;;20.07;10.53;;;;;;;-1.29;70.49;99136.50;1765243;81;21159;-68
2021/01/13 02:17:12;;;;;;;24.87;13.50;;;;;;;-1.36;70.34;99145.67;1766411;80;21150;-68
2021/01/13 02:19:51;;;;;;;23.17;12.63;;;;;;;-1.44;70.59;99131.80;1761246;80;21147;-67
2021/01/13 02:22:21;;;;;;;19.53;11.20;;;;;;;-1.46;70.75;99130.66;1751974;81;21049;-67
2021/01/13 02:25:17;;;;;;;19.60;8.93;;;;;;;-1.47;70.58;99126.38;1755224;81;21558;-67
2021/01/13 02:28:07;;;;;;;16.93;11.57;;;;;;;-1.47;70.70;99140.06;1749460;81;21154;-67
2021/01/13 02:30:39;;;;;;;15.23;10.73;;;;;;;-1.46;70.74;99125.88;1736953;82;21192;-68
2021/01/13 02:33:18;;;;;;;10.50;7.35;;;;;;;-1.46;70.71;99109.56;1768675;81;21210;-68
2021/01/13 02:36:14;;;;;;;18.93;11.90;;;;;;;-1.40;70.78;99106.19;1734107;82;21655;-67
2021/01/13 02:38:41;;;;;;;20.90;12.83;;;;;;;-1.41;70.74;99106.36;1751092;81;21129;-68
2021/01/13 02:41:18;;;;;;;18.30;12.77;;;;;;;-1.40;70.79;99114.09;1679705;84;22347;-67
2021/01/13 02:43:55;;;;;;;19.13;13.17;;;;;;;-1.39;70.83;99105.69;1751274;81;21173;-67
2021/01/13 02:46:58;;;;;;;21.00;13.20;;;;;;;-1.38;70.83;99101.52;1746187;81;21650;-67
2021/01/13 02:49:31;;;;;;;21.43;13.00;;;;;;;-1.40;70.77;99089.05;1804522;79;21124;-67
2021/01/13 02:52:00;;;;;;;26.33;13.23;;;;;;;-1.43;70.91;99078.03;1804639;79;21164;-65
2021/01/13 02:54:31;;;;;;;28.60;16.03;;;;;;;-1.44;70.95;99071.94;1778110;79;21630;-67
2021/01/13 02:57:18;;;;;;;23.27;16.07;;;;;;;-1.44;71.10;99077.73;1780527;79;21117;-70
2021/01/13 02:59:48;;;;;;;22.77;15.57;;;;;;;-1.41;71.18;99072.89;1763320;80;21193;-65
2021/01/13 03:02:16;;;;;;;16.40;11.73;;;;;;;-1.37;71.28;99070.20;1737233;82;21127;-65
2021/01/13 03:04:44;;;;;;;22.33;14.87;;;;;;;-1.29;71.18;99072.41;1751302;81;21530;-66
2021/01/13 03:07:15;;;;;;;16.77;12.57;;;;;;;-1.29;70.88;99075.05;1767296;81;21781;-66
2021/01/13 03:09:48;;;;;;;20.37;14.50;;;;;;;-1.33;70.83;99072.77;1760241;81;21163;-65
2021/01/13 03:12:22;;;;;;;21.80;14.45;;;;;;;-1.38;71.04;99078.28;1751343;82;21197;-66
2021/01/13 03:14:57;;;;;;;18.50;11.47;;;;;;;-1.33;71.14;99078.53;1750952;81;21018;-66
2021/01/13 03:17:42;;;;;;;26.33;12.73;;;;;;;-1.30;71.08;99068.95;1785918;80;21034;-66
2021/01/13 03:20:46;;;;;;;22.70;14.50;;;;;;;-1.32;70.93;99070.95;1788740;80;21121;-66
2021/01/13 03:23:23;;;;;;;20.55;14.90;;;;;;;-1.39;70.98;99065.59;1788971;80;21133;-66
2021/01/13 03:25:59;;;;;;;19.47;11.37;;;;;;;-1.30;71.16;99066.81;1771141;81;22225;-67
2021/01/13 03:28:31;;;;;;;30.73;13.77;;;;;;;-1.20;70.85;99063.36;1768901;81;21117;-66
2021/01/13 03:30:59;;;;;;;24.17;12.93;;;;;;;-1.17;70.70;99061.64;1750968;82;21623;-68
2021/01/13 03:34:16;;;;;;;18.40;10.57;;;;;;;-1.20;70.56;99048.84;1706313;82;21129;-66
2021/01/13 03:37:08;;;;;;;20.67;14.47;;;;;;;-1.25;70.49;99040.19;1764533;79;21610;-68
2021/01/13 03:39:37;;;;;;;19.50;14.30;;;;;;;-1.23;70.74;99036.02;1761411;81;21201;-67
2021/01/13 03:42:16;;;;;;;21.30;13.77;;;;;;;-1.24;70.46;99039.16;1761380;81;21113;-68
2021/01/13 03:44:46;;;;;;;25.00;14.60;;;;;;;-1.29;70.60;99033.63;1761301;81;20995;-66
2021/01/13 03:47:31;;;;;;;23.13;15.77;;;;;;;-1.33;70.82;99024.47;1773124;79;21162;-69
2021/01/13 03:50:20;;;;;;;27.93;16.13;;;;;;;-1.39;71.05;99029.99;1772006;81;21103;-66
2021/01/13 03:52:57;;;;;;;24.83;15.53;;;;;;;-1.43;71.28;99030.06;1780408;79;21204;-67
2021/01/13 03:55:30;;;;;;;30.70;21.47;;;;;;;-1.38;71.09;99022.91;1780082;79;21217;-67
2021/01/13 03:58:14;;;;;;;40.58;22.70;;;;;;;-1.41;71.13;99026.75;1761627;81;21017;-67
2021/01/13 04:01:00;;;;;;;39.03;25.60;;;;;;;-1.37;71.28;99024.05;1763600;79;21141;-69
2021/01/13 04:03:34;;;;;;;39.27;22.60;;;;;;;-1.36;71.14;99017.77;1741724;81;21183;-68
2021/01/13 04:06:10;;;;;;;31.13;21.33;;;;;;;-1.33;71.30;99020.52;1777500;78;21235;-69
2021/01/13 04:08:42;;;;;;;27.83;18.43;;;;;;;-1.36;71.16;99007.22;1831885;78;21650;-69
2021/01/13 04:11:14;;;;;;;24.50;16.27;;;;;;;-1.40;71.38;99007.30;1824801;78;21133;-67
2021/01/13 04:13:49;;;;;;;21.90;16.20;;;;;;;-1.43;71.56;99010.79;1820828;78;21551;-67
2021/01/13 04:16:19;;;;;;;21.77;15.10;;;;;;;-1.41;71.62;99008.30;1791703;78;21110;-68
2021/01/13 04:18:50;;;;;;;26.83;17.43;;;;;;;-1.39;71.69;99000.20;1782157;80;21369;-67
2021/01/13 04:21:21;;;;;;;23.20;16.50;;;;;;;-1.41;71.81;98989.83;1795139;78;21018;-68
2021/01/13 04:23:50;;;;;;;21.07;14.77;;;;;;;-1.48;72.05;98988.13;1808143;78;21045;-68
2021/01/13 04:26:18;;;;;;;23.37;15.87;;;;;;;-1.54;72.30;98993.69;1787638;79;21094;-67
2021/01/13 04:28:48;;;;;;;19.43;12.57;;;;;;;-1.56;72.46;98992.22;1782155;80;21193;-67
2021/01/13 04:31:16;;;;;;;20.13;12.80;;;;;;;-1.54;72.45;98984.45;1805317;78;21419;-65
2021/01/13 04:33:45;;;;;;;17.23;12.97;;;;;;;-1.51;72.45;98979.29;1832094;78;21123;-67
2021/01/13 04:36:14;;;;;;;14.57;11.03;;;;;;;-1.52;72.27;98979.79;1806938;78;21038;-66
2021/01/13 04:38:42;;;;;;;19.50;13.03;;;;;;;-1.49;72.24;98988.66;1770413;79;21305;-66
2021/01/13 04:41:18;;;;;;;24.37;15.50;;;;;;;-1.43;72.21;98988.37;1791124;79;21133;-68
2021/01/13 04:46:39;;;;;;;25.70;16.57;;;;;;;-1.34;72.34;98973.54;1847083;76;26951;-67
2021/01/13 04:49:22;;;;;;;23.30;16.40;;;;;;;-1.36;72.26;98976.07;1788540;78;20963;-68
2021/01/13 04:51:48;;;;;;;20.37;14.33;;;;;;;-1.33;72.22;98962.48;1802079;79;21139;-67
2021/01/13 04:54:18;;;;;;;19.27;14.70;;;;;;;-1.38;72.04;98964.88;1817088;78;20991;-68
2021/01/13 04:57:17;;;;;;;19.60;14.03;;;;;;;-1.42;72.10;98964.46;1803208;79;21152;-67
2021/01/13 05:00:07;;;;;;;16.77;12.43;;;;;;;-1.44;72.03;98961.19;1817258;79;21723;-67
2021/01/13 05:03:23;;;;;;;18.40;12.27;;;;;;;-1.45;71.94;98952.98;1789565;79;21627;-66
2021/01/13 05:05:56;;;;;;;18.77;13.10;;;;;;;-1.47;71.85;98953.67;1779530;79;21299;-68
2021/01/13 05:08:28;;;;;;;18.73;15.10;;;;;;;-1.50;72.03;98953.24;1767682;79;21026;-67
2021/01/13 05:11:12;;;;;;;20.10;14.03;;;;;;;-1.54;72.17;98950.68;1811963;79;21543;-69
2021/01/13 05:13:42;;;;;;;22.10;14.70;;;;;;;-1.56;72.28;98950.86;1782661;80;21208;-68
2021/01/13 05:16:11;;;;;;;28.83;16.80;;;;;;;-1.52;72.47;98951.28;1801995;79;21622;-67
2021/01/13 05:18:56;;;;;;;25.23;15.50;;;;;;;-1.49;72.54;98946.47;1817751;79;21197;-68
2021/01/13 05:21:26;;;;;;;21.97;15.83;;;;;;;-1.41;72.45;98953.41;1813618;79;21579;-69
2021/01/13 05:23:56;;;;;;;25.70;16.37;;;;;;;-1.40;72.37;98941.86;1784945;80;21093;-68
2021/01/13 05:26:26;;;;;;;20.33;15.23;;;;;;;-1.38;72.40;98945.92;1783957;80;21169;-68
2021/01/13 05:29:10;;;;;;;23.00;14.33;;;;;;;-1.34;72.41;98941.89;1784565;80;21116;-67
2021/01/13 05:31:37;;;;;;;22.57;14.20;;;;;;;-1.36;72.39;98941.29;1782783;80;21203;-67
2021/01/13 05:34:06;;;;;;;16.03;12.33;;;;;;;-1.37;72.55;98944.92;1730265;80;21138;-68
2021/01/13 05:36:33;;;;;;;21.10;15.33;;;;;;;-1.35;72.59;98938.16;1765680;80;21108;-68
2021/01/13 05:39:10;;;;;;;21.90;13.83;;;;;;;-1.31;72.67;98938.08;1726331;80;21018;-69
2021/01/13 05:41:39;;;;;;;23.17;15.63;;;;;;;-1.24;72.60;98931.50;1784712;80;21129;-68
2021/01/13 05:44:09;;;;;;;26.83;18.50;;;;;;;-1.29;72.52;98925.48;1784897;80;21398;-67
2021/01/13 05:46:46;;;;;;;23.63;16.17;;;;;;;-1.29;72.71;98922.06;1777847;79;21042;-67
2021/01/13 05:49:15;;;;;;;20.30;14.57;;;;;;;-1.30;72.86;98925.20;1785024;79;21125;-69
2021/01/13 05:51:43;;;;;;;24.30;17.23;;;;;;;-1.31;72.95;98926.20;1765745;80;21024;-68
2021/01/13 05:54:16;;;;;;;23.83;16.40;;;;;;;-1.30;73.03;98925.20;1753875;81;21136;-70
2021/01/13 05:56:44;;;;;;;;;;;;;;;-1.29;73.23;98920.22;1777233;80;21197;-69
2021/01/13 05:59:15;;;;;;;24.67;15.97;;;;;;;-1.29;73.24;98918.11;1784788;80;20195;-69
2021/01/13 06:02:00;;;;;;;20.17;13.03;;;;;;;-1.27;73.32;98921.35;1785266;80;21096;-68
2021/01/13 06:04:29;;;;;;;20.97;16.35;;;;;;;-1.31;73.31;98915.66;1784201;80;21062;-68
2021/01/13 06:07:19;;;;;;;23.93;17.03;;;;;;;-1.36;73.56;98918.87;1761178;80;21089;-69
2021/01/13 06:09:47;;;;;;;29.13;16.47;;;;;;;-1.37;73.68;98919.05;1753398;81;21330;-67
2021/01/13 06:12:18;;;;;;;25.13;15.97;;;;;;;-1.32;73.81;98909.56;1752492;80;21913;-68
2021/01/13 06:14:53;;;;;;;26.83;18.23;;;;;;;-1.26;73.65;98911.13;1784401;80;21036;-67
2021/01/13 06:17:27;;;;;;;27.35;17.80;;;;;;;-1.25;73.55;98906.98;1783798;80;21108;-68
2021/01/13 06:19:56;;;;;;;27.07;18.97;;;;;;;-1.25;73.62;98909.62;1762697;80;21128;-68
2021/01/13 06:22:31;;;;;;;27.57;19.53;;;;;;;-1.30;73.57;98910.70;1780563;80;21244;-68
2021/01/13 06:25:04;;;;;;;23.20;14.67;;;;;;;-1.30;73.81;98905.92;1784260;80;21090;-67
2021/01/13 06:28:03;;;;;;;28.73;17.90;;;;;;;-1.18;73.82;98913.59;1784366;80;21181;-67
2021/01/13 06:30:32;;;;;;;31.57;18.67;;;;;;;-1.17;73.63;98916.05;1782336;80;21038;-67
2021/01/13 06:33:23;;;;;;;22.00;16.07;;;;;;;-1.18;73.62;98914.91;1749488;81;21208;-67
2021/01/13 06:36:09;;;;;;;21.63;14.87;;;;;;;-1.14;73.64;98913.52;1753416;81;22364;-67
2021/01/13 06:38:52;;;;;;;25.73;14.43;;;;;;;-1.13;73.48;98910.70;1755999;80;21169;-67
2021/01/13 06:41:19;;;;;;;24.27;15.13;;;;;;;-1.23;73.51;98907.58;1749788;80;21212;-67
2021/01/13 06:44:03;;;;;;;31.03;18.47;;;;;;;-1.27;73.81;98901.07;1783417;80;21022;-67
2021/01/13 06:46:33;;;;;;;25.40;17.53;;;;;;;-1.29;73.83;98899.11;1794527;79;21188;-67
2021/01/13 06:49:13;;;;;;;27.87;15.97;;;;;;;-1.24;73.90;98895.90;1798887;79;21438;-67
2021/01/13 06:51:43;;;;;;;22.37;14.40;;;;;;;-1.23;73.95;98897.03;1796318;79;21124;-69
2021/01/13 06:54:19;;;;;;;18.67;12.57;;;;;;;-1.29;74.37;98882.50;1798748;79;21037;-67
2021/01/13 06:56:57;;;;;;;21.47;16.67;;;;;;;-1.29;74.61;98889.09;1798843;79;21085;-67
2021/01/13 06:59:28;;;;;;;18.47;13.57;;;;;;;-1.33;74.66;98892.61;1798621;79;21137;-67
2021/01/13 07:01:58;;;;;;;19.93;14.40;;;;;;;-1.37;74.79;98891.37;1797382;79;21554;-68
2021/01/13 07:04:27;;;;;;;28.00;17.53;;;;;;;-1.30;75.05;98887.47;1798707;79;21153;-68
2021/01/13 07:07:07;;;;;;;25.73;17.47;;;;;;;-1.25;74.88;98880.60;1798925;79;21169;-68
2021/01/13 07:09:37;;;;;;;26.00;17.17;;;;;;;-1.25;74.80;98882.42;1798816;79;20994;-69
2021/01/13 07:12:16;;;;;;;24.27;15.60;;;;;;;-1.27;74.79;98877.33;1780426;79;21179;-68
2021/01/13 07:14:47;;;;;;;29.40;18.03;;;;;;;-1.25;74.94;98885.88;1775487;79;21210;-69
2021/01/13 07:17:20;;;;;;;34.23;21.07;;;;;;;-1.27;74.68;98884.43;1787451;79;21140;-69
2021/01/13 07:19:51;;;;;;;33.73;19.97;;;;;;;-1.30;74.76;98880.87;1798651;79;21093;-66
2021/01/13 07:22:22;;;;;;;26.20;17.27;;;;;;;-1.28;74.81;98888.06;1780537;78;21116;-67
2021/01/13 07:24:51;;;;;;;30.20;19.10;;;;;;;-1.31;74.88;98874.78;1794741;79;21164;-66
2021/01/13 07:27:19;;;;;;;27.97;16.53;;;;;;;-1.32;74.87;98879.23;1767741;79;22120;-66
2021/01/13 07:29:49;;;;;;;32.07;19.60;;;;;;;-1.27;75.00;98881.79;1780248;79;21128;-68
2021/01/13 07:32:23;;;;;;;29.90;19.53;;;;;;;-1.26;74.84;98875.02;1795629;79;21575;-68
2021/01/13 07:34:54;;;;;;;27.73;17.97;;;;;;;-1.25;74.90;98866.09;1767354;81;21197;-67
2021/01/13 07:37:24;;;;;;;28.17;17.30;;;;;;;-1.20;74.88;98862.88;1767277;81;21148;-67
2021/01/13 07:40:17;;;;;;;28.70;19.97;;;;;;;-1.19;74.76;98854.75;1772457;79;21210;-68
2021/01/13 07:42:47;;;;;;;40.70;18.90;;;;;;;-1.19;74.89;98845.52;1784394;79;21085;-67
2021/01/13 07:45:19;;;;;;;23.13;17.23;;;;;;;-1.11;74.91;98841.92;1784810;78;21143;-69
2021/01/13 07:48:17;;;;;;;30.27;17.60;;;;;;;-1.11;74.79;98838.78;1792522;79;21108;-70
2021/01/13 07:50:49;;;;;;;24.10;15.47;;;;;;;-1.17;74.70;98821.09;1767299;81;21120;-69
2021/01/13 07:53:28;;;;;;;21.67;15.03;;;;;;;-1.10;74.71;98818.45;1794813;79;21422;-68
2021/01/13 07:55:59;;;;;;;22.23;15.33;;;;;;;-1.03;74.50;98806.13;1783433;79;21152;-67
2021/01/13 07:58:35;;;;;;;27.60;16.33;;;;;;;-1.11;74.16;98804.98;1774948;79;21112;-66
2021/01/13 08:04:43;;;;;;;30.83;17.03;;;;;;;-1.08;74.05;98801.44;1897247;74;26467;-68
2021/01/13 08:07:16;;;;;;;20.60;13.27;;;;;;;-1.10;74.16;98803.95;1816826;79;21051;-67
2021/01/13 08:09:51;;;;;;;26.77;16.97;;;;;;;-1.03;74.23;98801.66;1810533;78;22362;-67
2021/01/13 08:12:56;;;;;;;19.57;13.60;;;;;;;-1.08;73.81;98796.16;1779228;80;21099;-68
2021/01/13 08:15:48;;;;;;;18.43;14.33;;;;;;;-1.09;73.81;98794.53;1779073;80;21142;-67
2021/01/13 08:19:09;;;;;;;23.60;14.93;;;;;;;-1.05;73.85;98793.11;1778007;80;21643;-67
2021/01/13 08:22:00;;;;;;;26.13;12.67;;;;;;;-0.97;73.56;98794.28;1783463;78;21595;-69
2021/01/13 08:24:31;;;;;;;25.17;10.80;;;;;;;-0.89;72.60;98786.68;1750882;81;21231;-67
2021/01/13 08:27:01;;;;;;;13.00;8.80;;;;;;;-0.88;71.99;98777.76;1740261;80;21609;-67
2021/01/13 08:29:37;;;;;;;9.77;7.60;;;;;;;-0.83;71.78;98770.56;1745573;79;21075;-68
2021/01/13 08:32:09;;;;;;;23.27;16.17;;;;;;;-0.82;71.19;98765.09;1800670;79;21113;-69
2021/01/13 08:34:46;;;;;;;22.67;15.10;;;;;;;-0.89;71.22;98759.78;1793042;79;21378;-66
2021/01/13 08:37:14;;;;;;;16.73;13.10;;;;;;;-0.90;71.22;98757.34;1759777;81;21330;-69
2021/01/13 08:39:43;;;;;;;33.67;16.37;;;;;;;-0.86;71.30;98753.28;1757878;79;21591;-67
2021/01/13 08:42:26;;;;;;;14.33;8.83;;;;;;;-0.81;71.37;98752.18;1740954;79;21200;-74
2021/01/13 08:44:56;;;;;;;13.75;10.63;;;;;;;-0.72;70.89;98752.83;1768110;81;21096;-69
2021/01/13 08:47:25;;;;;;;11.37;8.57;;;;;;;-0.69;70.34;98747.95;1751136;81;21146;-67
2021/01/13 08:50:13;;;;;;;17.17;10.97;;;;;;;-0.69;69.90;98743.17;1781813;79;21439;-68
2021/01/13 08:52:49;;;;;;;13.33;8.20;;;;;;;-0.74;69.52;98741.64;1791461;79;21202;-71
2021/01/13 08:55:18;;;;;;;18.83;12.80;;;;;;;-0.71;69.51;98744.69;1753912;81;20990;-67
2021/01/13 08:58:03;;;;;;;17.50;12.47;;;;;;;-0.71;69.41;98739.91;1770330;81;21740;-66
2021/01/13 09:00:32;;;;;;;12.70;9.67;;;;;;;-0.72;69.37;98735.13;1769732;81;21140;-67
2021/01/13 09:03:14;;;;;;;22.67;12.77;;;;;;;-0.69;69.38;98735.25;1778105;79;22217;-70
2021/01/13 09:05:43;;;;;;;16.70;10.70;;;;;;;-0.67;69.39;98737.20;1790236;80;21137;-68
2021/01/13 09:08:13;;;;;;;25.17;17.23;;;;;;;-0.63;69.40;98735.27;1793301;80;21157;-67
2021/01/13 09:10:54;;;;;;;26.30;17.23;;;;;;;-0.62;69.34;98732.92;1789272;80;21113;-68
2021/01/13 09:13:45;;;;;;;33.43;21.23;;;;;;;-0.58;69.31;98730.20;1771857;80;21185;-65
2021/01/13 09:16:28;;;;;;;25.37;17.23;;;;;;;-0.57;69.06;98728.34;1783340;80;21363;-67
2021/01/13 09:19:08;;;;;;;36.90;23.18;;;;;;;-0.59;69.37;98725.12;1783360;80;20995;-67
2021/01/13 09:21:41;;;;;;;38.57;21.30;;;;;;;-0.55;69.48;98723.69;1773744;80;21128;-69
2021/01/13 09:24:18;;;;;;;35.93;20.03;;;;;;;-0.54;69.55;98732.74;1777506;80;21150;-68
2021/01/13 09:26:56;;;;;;;21.67;13.80;;;;;;;-0.54;69.71;98731.42;1783308;80;21142;-66
2021/01/13 09:29:28;;;;;;;30.60;16.43;;;;;;;-0.51;69.80;98730.19;1783283;80;21162;-68
2021/01/13 09:32:11;;;;;;;28.50;19.13;;;;;;;-0.51;70.07;98739.43;1783284;80;21161;-68
2021/01/13 09:34:39;;;;;;;33.40;17.87;;;;;;;-0.55;70.40;98739.03;1784898;80;21139;-67
2021/01/13 09:37:07;;;;;;;32.47;20.63;;;;;;;-0.57;70.48;98736.27;1784909;80;21042;-67
2021/01/13 09:39:39;;;;;;;35.37;22.97;;;;;;;-0.58;70.54;98739.45;1784833;80;21131;-69
2021/01/13 09:42:08;;;;;;;46.42;26.95;;;;;;;-0.57;70.51;98729.17;1784047;80;21213;-68
2021/01/13 09:44:37;;;;;;;52.33;29.20;;;;;;;-0.56;70.39;98726.84;1763527;80;21176;-67
2021/01/13 09:47:24;;;;;;;33.43;19.90;;;;;;;-0.55;69.80;98724.51;1763381;80;21532;-68
2021/01/13 09:49:57;;;;;;;27.23;16.80;;;;;;;-0.54;69.30;98724.82;1761436;81;21045;-69
2021/01/13 09:52:26;;;;;;;30.63;16.67;;;;;;;-0.59;68.94;98721.97;1776430;80;21167;-69
2021/01/13 09:54:59;;;;;;;27.70;17.80;;;;;;;-0.57;69.00;98713.83;1780570;80;21150;-67
2021/01/13 09:57:28;;;;;;;13.40;9.80;;;;;;;-0.56;68.85;98713.63;1749261;81;21632;-66
2021/01/13 10:00:10;;;;;;;15.20;11.77;;;;;;;-0.59;68.78;98705.31;1733613;81;21158;-65
2021/01/13 10:02:43;;;;;;;11.80;8.30;;;;;;;-0.56;68.68;98698.30;1778574;80;21165;-68
2021/01/13 10:05:13;;;;;;;14.73;10.30;;;;;;;-0.54;68.22;98687.85;1784955;80;21543;-68
2021/01/13 10:07:42;;;;;;;16.23;9.87;;;;;;;-0.56;68.12;98689.05;1787645;80;21366;-67
2021/01/13 10:10:11;;;;;;;16.77;11.30;;;;;;;-0.59;67.92;98685.01;1787628;80;21242;-68
2021/01/13 10:12:42;;;;;;;22.57;13.23;;;;;;;-0.63;68.24;98671.91;1770060;79;21124;-67
2021/01/13 10:15:12;;;;;;;22.13;13.93;;;;;;;-0.62;68.52;98666.09;1728307;80;21188;-67
2021/01/13 10:17:41;;;;;;;19.17;11.33;;;;;;;-0.63;68.54;98663.99;1779163;80;21161;-66
2021/01/13 10:20:19;;;;;;;10.50;9.07;;;;;;;-0.67;68.70;98665.92;1788003;80;22179;-66
2021/01/13 10:22:48;;;;;;;14.47;11.00;;;;;;;-0.74;68.60;98663.27;1784906;80;21340;-68
2021/01/13 10:25:33;;;;;;;20.40;9.70;;;;;;;-0.74;68.64;98662.45;1786343;79;20972;-67
2021/01/13 10:28:01;;;;;;;9.93;7.47;;;;;;;-0.76;68.45;98652.59;1792443;80;21628;-69
2021/01/13 10:30:31;;;;;;;10.80;7.57;;;;;;;-0.85;68.50;98641.43;1787504;80;21562;-67
2021/01/13 10:32:59;;;;;;;10.13;7.70;;;;;;;-0.91;68.60;98644.36;1783218;80;21161;-68
2021/01/13 10:35:38;;;;;;;11.13;7.23;;;;;;;-0.87;68.69;98638.20;1805684;79;21024;-68
2021/01/13 10:38:06;;;;;;;14.40;6.97;;;;;;;-0.86;68.76;98637.69;1780969;80;21134;-69
2021/01/13 10:40:34;;;;;;;12.03;9.10;;;;;;;-0.87;68.65;98642.16;1783320;79;21062;-68
2021/01/13 10:43:01;;;;;;;15.17;9.10;;;;;;;-0.85;68.58;98636.15;1780643;80;21192;-71
2021/01/13 10:45:30;;;;;;;16.83;10.73;;;;;;;-0.84;68.47;98623.77;1750431;80;21377;-73
2021/01/13 10:48:02;;;;;;;15.53;6.60;;;;;;;-0.88;68.35;98626.01;1781664;80;21130;-69
2021/01/13 10:50:32;;;;;;;14.28;9.15;;;;;;;-0.89;68.28;98616.46;1784954;79;21178;-67
2021/01/13 10:53:02;;;;;;;22.63;11.13;;;;;;;-0.91;68.04;98618.48;1781745;79;21105;-66
2021/01/13 10:55:32;;;;;;;15.60;9.30;;;;;;;-0.93;68.33;98607.33;1812099;79;21022;-66
2021/01/13 10:58:00;;;;;;;17.77;9.67;;;;;;;-0.89;68.27;98598.80;1805718;79;21200;-70
2021/01/13 11:00:30;;;;;;;10.73;8.13;;;;;;;-0.89;68.41;98601.45;1754818;80;21616;-66
2021/01/13 11:02:59;;;;;;;12.80;8.47;;;;;;;-0.89;68.19;98597.48;1789583;79;21118;-68
2021/01/13 11:05:27;;;;;;;16.33;11.93;;;;;;;-0.91;68.27;98596.87;1798130;79;20987;-68
2021/01/13 11:07:56;;;;;;;12.97;7.70;;;;;;;-0.86;68.39;98598.89;1780695;79;21582;-68
2021/01/13 11:10:24;;;;;;;16.93;9.40;;;;;;;-0.81;68.33;98587.72;1729944;82;21417;-67
2021/01/13 11:13:04;;;;;;;23.77;10.13;;;;;;;-0.83;68.02;98600.33;1755360;79;21635;-65
2021/01/13 11:15:37;;;;;;;12.03;8.20;;;;;;;-0.87;68.17;98599.11;1775281;80;21119;-70
2021/01/13 11:18:09;;;;;;;16.33;10.63;;;;;;;-0.90;68.15;98589.26;1766407;80;21081;-69
2021/01/13 11:20:37;;;;;;;8.33;6.30;;;;;;;-0.87;68.25;98583.28;1765620;80;21154;-66
2021/01/13 11:23:07;;;;;;;11.37;5.87;;;;;;;-0.83;67.80;98581.86;1725938;82;21212;-65
2021/01/13 11:25:37;;;;;;;22.20;9.60;;;;;;;-0.84;67.46;98570.48;1719501;83;21125;-66
2021/01/13 11:28:13;;;;;;;10.63;7.03;;;;;;;-0.84;67.70;98571.80;1732820;82;21164;-65
2021/01/13 11:30:44;;;;;;;12.63;8.77;;;;;;;-0.83;67.87;98565.52;1705371;82;21185;-64
2021/01/13 11:33:14;;;;;;;19.90;12.23;;;;;;;-0.80;67.83;98559.00;1758231;81;21187;-67
2021/01/13 11:35:47;;;;;;;10.97;8.53;;;;;;;-0.74;67.81;98568.75;1743018;82;21428;-66
2021/01/13 11:38:42;;;;;;;16.63;10.23;;;;;;;-0.72;67.75;98560.91;1730536;82;21579;-69
2021/01/13 11:41:48;;;;;;;30.57;13.90;;;;;;;-0.73;67.90;98557.18;1701874;81;21164;-66
2021/01/13 11:44:29;;;;;;;12.13;8.40;;;;;;;-0.79;68.11;98546.92;1716596;83;21602;-65
2021/01/13 11:47:22;;;;;;;11.23;6.77;;;;;;;-0.76;68.16;98547.83;1734304;81;21108;-68
2021/01/13 11:49:53;;;;;;;15.35;7.17;;;;;;;-0.78;67.92;98547.74;1734657;81;21375;-68
2021/01/13 11:52:25;;;;;;;15.70;9.40;;;;;;;-0.78;67.87;98547.74;1752637;81;21096;-68
2021/01/13 11:54:54;;;;;;;8.87;7.30;;;;;;;-0.77;67.96;98542.27;1745856;81;21200;-67
2021/01/13 11:57:29;;;;;;;16.00;9.63;;;;;;;-0.72;68.01;98539.02;1736310;81;21594;-69
2021/01/13 12:00:16;;;;;;;8.40;6.43;;;;;;;-0.72;68.04;98524.50;1729777;81;21134;-68
2021/01/13 12:02:51;;;;;;;12.43;9.03;;;;;;;-0.71;67.81;98531.38;1750917;81;21306;-66
2021/01/13 12:05:30;;;;;;;10.73;7.93;;;;;;;-0.74;67.88;98526.52;1777205;80;21221;-64